createdAt,value
2023-04-29T00:03:15.509Z,7.40
2023-04-29T00:08:18.148Z,7.40
2023-04-29T00:13:21.987Z,6.83
2023-04-29T00:18:24.469Z,6.97
2023-04-29T00:23:26.966Z,6.80
2023-04-29T00:28:30.805Z,6.65
2023-04-29T00:33:33.267Z,7.23
2023-04-29T00:38:35.754Z,7.13
2023-04-29T00:43:39.591Z,7.10
2023-04-29T00:48:42.338Z,7.17
2023-04-29T00:53:45.031Z,7.07
2023-04-29T00:58:51.726Z,8.05
2023-04-29T01:03:54.978Z,7.40
2023-04-29T01:09:11.954Z,8.57
2023-04-29T01:14:16.500Z,8.25
2023-04-29T01:19:32.546Z,8.52
2023-04-29T01:24:36.393Z,7.90
2023-04-29T01:29:44.980Z,8.73
2023-04-29T01:34:55.989Z,8.88
2023-04-29T01:40:09.382Z,8.87
2023-04-29T01:45:12.756Z,8.85
2023-04-29T01:50:15.264Z,9.23
2023-04-29T01:55:20.076Z,8.77
2023-04-29T02:00:22.788Z,9.53
2023-04-29T02:05:25.816Z,9.50
2023-04-29T02:10:29.751Z,9.13
2023-04-29T02:15:32.225Z,9.23
2023-04-29T02:20:34.683Z,9.07
2023-04-29T02:25:38.659Z,9.32
2023-04-29T02:30:41.464Z,9.63
2023-04-29T02:35:43.952Z,9.63
2023-04-29T02:40:48.144Z,9.43
2023-04-29T02:45:50.713Z,9.83
2023-04-29T02:50:53.278Z,9.87
2023-04-29T02:55:57.369Z,10.45
2023-04-29T03:01:00.002Z,10.13
2023-04-29T03:06:02.463Z,10.60
2023-04-29T03:11:06.647Z,10.50
2023-04-29T03:16:09.869Z,11.15
2023-04-29T03:21:12.388Z,10.40
2023-04-29T03:26:16.286Z,10.52
2023-04-29T03:31:20.870Z,11.77
2023-04-29T03:36:23.423Z,10.80
2023-04-29T03:41:27.254Z,10.40
2023-04-29T03:46:29.852Z,11.52
2023-04-29T03:51:32.666Z,11.18
2023-04-29T03:56:36.480Z,11.37
2023-04-29T04:01:39.028Z,12.25
2023-04-29T04:06:41.569Z,12.70
2023-04-29T04:11:45.611Z,12.23
2023-04-29T04:16:50.572Z,12.07
2023-04-29T04:21:53.200Z,11.98
2023-04-29T04:26:57.000Z,12.50
2023-04-29T04:31:59.495Z,13.67
2023-04-29T04:37:02.062Z,12.63
2023-04-29T04:42:05.945Z,13.43
2023-04-29T04:47:08.437Z,12.87
2023-04-29T04:52:11.583Z,13.55
2023-04-29T04:57:16.461Z,12.13
2023-04-29T05:02:19.179Z,10.47
2023-04-29T05:07:21.720Z,12.18
2023-04-29T05:12:30.480Z,12.35
2023-04-29T05:17:34.541Z,12.67
2023-04-29T05:22:37.110Z,11.50
2023-04-29T05:27:41.158Z,12.00
2023-04-29T05:32:45.310Z,11.30
2023-04-29T05:37:47.826Z,11.00
2023-04-29T05:42:51.944Z,10.75
2023-04-29T05:47:54.458Z,11.10
2023-04-29T05:52:57.394Z,11.00
2023-04-29T05:58:01.244Z,11.07
2023-04-29T06:03:03.882Z,11.73
2023-04-29T06:08:07.307Z,11.27
2023-04-29T06:13:11.258Z,10.77
2023-04-29T06:18:13.900Z,10.07
2023-04-29T06:23:16.403Z,8.32
2023-04-29T06:28:20.484Z,9.40
2023-04-29T06:33:22.955Z,8.23
2023-04-29T06:38:25.433Z,8.68
2023-04-29T06:43:29.242Z,8.80
2023-04-29T06:48:31.732Z,8.07
2023-04-29T06:53:34.208Z,9.75
2023-04-29T06:58:38.375Z,8.77
2023-04-29T07:03:41.035Z,9.20
2023-04-29T07:08:43.698Z,9.70
2023-04-29T07:13:47.507Z,10.70
2023-04-29T07:18:50.098Z,9.87
2023-04-29T07:23:52.567Z,10.02
2023-04-29T07:28:56.365Z,10.13
2023-04-29T07:33:58.834Z,10.73
2023-04-29T07:39:01.316Z,11.00
2023-04-29T07:44:05.524Z,10.20
2023-04-29T07:49:07.999Z,9.73
2023-04-29T07:54:10.889Z,9.33
2023-04-29T07:59:14.878Z,7.75
2023-04-29T08:04:17.639Z,8.60
2023-04-29T08:09:20.493Z,8.43
2023-04-29T08:14:24.447Z,8.85
2023-04-29T08:19:26.941Z,6.72
2023-04-29T08:24:29.706Z,6.50
2023-04-29T08:29:34.304Z,8.43
2023-04-29T08:34:37.570Z,8.65
2023-04-29T08:39:40.057Z,7.07
2023-04-29T08:44:44.483Z,7.80
2023-04-29T08:49:46.989Z,7.15
2023-04-29T08:54:49.500Z,6.50
2023-04-29T08:59:53.469Z,6.73
2023-04-29T09:05:06.078Z,6.05
2023-04-29T09:10:09.565Z,5.50
2023-04-29T09:15:13.557Z,4.97
2023-04-29T09:20:27.950Z,5.07
2023-04-29T09:25:31.245Z,5.82
2023-04-29T09:30:47.037Z,5.20
2023-04-29T09:35:49.876Z,5.30
2023-04-29T09:40:59.607Z,4.88
2023-04-29T09:46:04.071Z,6.00
2023-04-29T09:51:07.072Z,4.93
2023-04-29T09:56:09.586Z,5.85
2023-04-29T10:01:14.342Z,4.85
2023-04-29T10:06:18.247Z,5.40
2023-04-29T10:11:21.581Z,5.45
2023-04-29T10:16:30.116Z,5.22
2023-04-29T10:21:33.089Z,5.63
2023-04-29T10:26:39.529Z,5.23
2023-04-29T10:31:44.555Z,5.45
2023-04-29T10:36:48.140Z,4.47
2023-04-29T10:41:52.428Z,4.77
2023-04-29T10:47:20.878Z,5.40
2023-04-29T10:52:23.373Z,4.90
2023-04-29T10:57:26.935Z,4.97
2023-04-29T11:02:30.800Z,3.85
2023-04-29T11:07:33.337Z,4.40
2023-04-29T11:12:35.835Z,4.30
2023-04-29T11:17:41.178Z,3.70
2023-04-29T11:22:52.132Z,4.30
2023-04-29T11:27:56.749Z,3.85
2023-04-29T11:33:01.145Z,2.87
2023-04-29T11:38:05.742Z,2.90
2023-04-29T11:43:08.218Z,3.45
2023-04-29T11:48:19.155Z,3.60
2023-04-29T11:53:22.849Z,3.30
2023-04-29T11:58:25.674Z,3.58
2023-04-29T12:03:29.715Z,3.60
2023-04-29T12:08:33.995Z,2.70
2023-04-29T12:13:36.928Z,3.17
2023-04-29T12:18:41.050Z,3.30
2023-04-29T12:23:43.939Z,2.83
2023-04-29T12:28:46.509Z,3.20
2023-04-29T12:33:50.373Z,4.22
2023-04-29T12:38:54.575Z,3.97
2023-04-29T12:43:57.588Z,3.00
2023-04-29T12:49:03.174Z,4.32
2023-04-29T12:54:07.224Z,3.47
2023-04-29T12:59:11.766Z,3.50
2023-04-29T13:04:15.818Z,3.35
2023-04-29T13:09:19.157Z,3.70
2023-04-29T13:14:22.163Z,4.23
2023-04-29T13:19:43.294Z,4.18
2023-04-29T13:24:48.534Z,4.47
2023-04-29T13:29:51.192Z,4.50
2023-04-29T13:34:55.593Z,4.90
2023-04-29T13:39:58.146Z,4.45
2023-04-29T13:45:00.781Z,3.67
2023-04-29T14:00:38.158Z,4.45
2023-04-29T14:05:42.484Z,3.80
2023-04-29T14:10:45.068Z,3.40
2023-04-29T14:15:47.643Z,2.95
2023-04-29T14:20:51.584Z,3.77
2023-04-29T14:25:58.899Z,4.30
2023-04-29T14:31:09.039Z,4.85
2023-04-29T14:36:12.876Z,4.90
2023-04-29T14:41:15.894Z,4.87
2023-04-29T14:46:18.502Z,5.05
2023-04-29T14:51:22.373Z,5.68
2023-04-29T14:56:24.868Z,6.17
2023-04-29T15:01:28.679Z,6.20
2023-04-29T15:06:34.287Z,5.15
2023-04-29T15:11:36.806Z,6.00
2023-04-29T15:16:39.451Z,6.40
2023-04-29T15:21:43.304Z,5.88
2023-04-29T15:26:46.485Z,5.97
2023-04-29T15:31:49.043Z,4.50
2023-04-29T15:36:53.018Z,4.80
2023-04-29T15:41:55.513Z,3.95
2023-04-29T15:46:58.016Z,4.67
2023-04-29T15:52:02.496Z,3.80
2023-04-29T15:57:05.298Z,3.50
2023-04-29T16:02:10.703Z,3.70
2023-04-29T16:07:14.876Z,2.75
2023-04-29T16:12:17.390Z,3.33
2023-04-29T16:17:20.453Z,2.63
2023-04-29T16:22:24.449Z,2.30
2023-04-29T16:27:29.815Z,2.78
2023-04-29T16:32:33.468Z,1.88
2023-04-29T16:37:37.473Z,2.00
2023-04-29T16:42:39.943Z,2.35
2023-04-29T16:47:42.970Z,1.70
2023-04-29T16:52:46.975Z,2.03
2023-04-29T16:57:49.459Z,1.80
2023-04-29T17:02:52.845Z,2.10
2023-04-29T17:07:56.856Z,2.50
2023-04-29T17:12:59.407Z,2.10
2023-04-29T17:18:01.936Z,2.20
2023-04-29T17:23:06.296Z,1.90
2023-04-29T17:28:08.782Z,1.70
2023-04-29T17:33:13.259Z,2.20
2023-04-29T17:38:17.667Z,2.03
2023-04-29T17:43:20.136Z,2.23
2023-04-29T17:48:22.694Z,1.77
2023-04-29T17:53:28.446Z,1.90
2023-04-29T17:58:30.952Z,2.33
2023-04-29T18:03:33.541Z,1.60
2023-04-29T18:08:37.414Z,1.88
2023-04-29T18:13:40.224Z,2.00
2023-04-29T18:18:43.123Z,1.90
2023-04-29T18:23:47.629Z,1.55
2023-04-29T18:28:50.622Z,1.50
2023-04-29T18:33:53.136Z,1.80
2023-04-29T18:38:57.039Z,1.70
2023-04-29T18:43:59.624Z,1.60
2023-04-29T18:49:02.097Z,1.53
2023-04-29T18:54:06.152Z,1.53
2023-04-29T18:59:10.078Z,1.60
2023-04-29T19:04:12.656Z,1.30
2023-04-29T19:09:16.504Z,1.37
2023-04-29T19:14:19.289Z,1.60
2023-04-29T19:19:21.823Z,1.40
2023-04-29T19:24:25.782Z,1.60
2023-04-29T19:29:28.271Z,1.40
2023-04-29T19:34:30.855Z,1.63
2023-04-29T19:39:34.702Z,1.67
2023-04-29T19:44:37.202Z,1.93
2023-04-29T19:49:39.790Z,2.30
2023-04-29T19:54:43.624Z,1.90
2023-04-29T19:59:46.224Z,2.03
2023-04-29T20:04:49.135Z,1.90
2023-04-29T20:09:53.213Z,1.92
2023-04-29T20:14:56.316Z,2.10
2023-04-29T20:19:59.047Z,1.80
2023-04-29T20:25:03.049Z,2.03
2023-04-29T20:30:06.819Z,2.27
2023-04-29T20:35:09.353Z,1.70
2023-04-29T20:40:13.873Z,2.50
2023-04-29T20:45:16.659Z,2.60
2023-04-29T20:50:19.205Z,2.20
2023-04-29T20:55:23.330Z,2.42
2023-04-29T21:00:25.856Z,2.25
2023-04-29T21:05:28.354Z,2.07
2023-04-29T21:10:32.278Z,2.50
2023-04-29T21:15:34.821Z,2.10
2023-04-29T21:20:37.352Z,2.40
2023-04-29T21:25:41.179Z,2.07
2023-04-29T21:30:43.673Z,2.50
2023-04-29T21:35:49.754Z,2.53
2023-04-29T21:40:54.144Z,2.30
2023-04-29T21:45:56.649Z,2.97
2023-04-29T21:50:59.933Z,2.30
2023-04-29T21:56:03.933Z,2.10
2023-04-29T22:01:25.852Z,2.17
2023-04-29T22:06:28.480Z,2.35
2023-04-29T22:11:32.369Z,2.57
2023-04-29T22:16:35.894Z,2.60
2023-04-29T22:21:40.712Z,2.50
2023-04-29T22:26:44.502Z,2.60
2023-04-29T22:31:47.298Z,2.70
2023-04-29T22:36:49.804Z,2.72
2023-04-29T22:41:53.647Z,2.80
2023-04-29T22:46:56.105Z,2.70
2023-04-29T22:51:58.611Z,2.45
2023-04-29T22:57:03.511Z,3.10
2023-04-29T23:02:06.003Z,3.00
2023-04-29T23:07:08.500Z,2.53
2023-04-29T23:12:12.303Z,2.97
2023-04-29T23:17:14.805Z,3.00
2023-04-29T23:22:17.698Z,2.60
2023-04-29T23:27:21.654Z,2.80
2023-04-29T23:32:24.847Z,2.60
2023-04-29T23:37:27.442Z,2.90
2023-04-29T23:42:31.414Z,3.05
2023-04-29T23:47:33.953Z,2.75
2023-04-29T23:52:36.447Z,2.67
2023-04-29T23:57:40.340Z,2.60
